Aghil-e Khwajah, Afghanistan

4:51 PM +0430 on April 24, 2017 (GMT +0430)
Kabul | | Change Station

Elev 5876 ft 34.55 °N, 69.22 °E | Updated 31 minutes ago

Partly Cloudy
Partly Cloudy
68 °F
Feels Like 68 °F
N
15
Wind Variable Wind from ESE

Today
High -- | Low -- °F
--% Chance of Precip.
Yesterday
High -- | Low -- °F
Precip. -- in
Pressure 30.01 in
Visibility 6.2 miles
Clouds Few 10000 ft
Scattered Clouds 20000 ft
Dew Point 34 °F
Humidity 28%
Rainfall 0.00 in
Snow Depth Not available.
5:11 AM 6:32 PM
Waning Crescent, 6% visible
METAR OAKB 241150Z 12013KT 9999 FEW100 SCT200 20/01 Q1016 NOSIG RMK BLU BLU
Pressure 30.01 in
Visibility 6.2 miles
Clouds Few 10000 ft
Scattered Clouds 20000 ft
Dew Point 34 °F
Humidity 28%
Rainfall 0.00 in
Snow Depth Not available.
5:11 AM 6:32 PM
Waning Crescent, 6% visible
METAR OAKB 241150Z 12013KT 9999 FEW100 SCT200 20/01 Q1016 NOSIG RMK BLU BLU

Get Severe Weather Alerts

Thanks for signing up!

Be on the lookout for a verification email in your inbox.

You'll start receiving the daily forecast at 8 AM.

×

10-Day Weather Forecast

No radar image for this location.
×

Almanac

Astronomy

Apr. 24, 2017 Rise Set
Actual Time
Civil Twilight
Nautical Twilight
Astronomical Twilight
Moon
Length of Visible Light
Length of Day
Tomorrow will be .
, % of the Moon is Illuminated

Today's Extremes

Country Highs Country Lows

Community

WunderPhotos

WunderBlog® & News

Nearby

Air Quality

  Air Quality AQ Index Pollutant
Not available.

Snow Depth

Station Depth Elevation

Earthquake Activity

City Distance Mag. Time & Date
Minimum magnitude displayed is 2.5.

Coastal Water Temperatures

Place Temperature

Stations

Nearby Weather Stations

Station Location Temp. Windchill Dew Point Humidity Wind Precip. Elev Updated Type